Time;durP1;ratioP1;P1;durP2;ratioP2;P2;SDS_P1;SDS_P2;PMS_P1;PMS_P2;Temp;Humidity;BMP_temperature;BMP_pressure;BME280_temperature;BME280_humidity;BME280_pressure;Samples;Min_cycle;Max_cycle;Signal;HPM_P1;HPM_P2
2023/05/17 00:01:50;;;;;;;10.73;3.97;;;3.70;69.00;;;;;;5110684;28;20035;-76
2023/05/17 00:04:15;;;;;;;17.55;4.75;;;3.70;68.70;;;;;;5109527;28;20312;-76
2023/05/17 00:06:41;;;;;;;11.25;4.30;;;3.80;69.00;;;;;;5108895;28;20023;-76
2023/05/17 00:09:07;;;;;;;12.15;3.80;;;3.80;69.80;;;;;;5109300;28;20031;-76
2023/05/17 00:11:33;;;;;;;10.32;4.03;;;3.90;71.00;;;;;;5113344;28;20023;-76
2023/05/17 00:14:02;;;;;;;10.82;3.70;;;3.90;71.80;;;;;;5093736;28;20032;-77
2023/05/17 00:16:27;;;;;;;13.27;4.47;;;3.90;72.70;;;;;;5111882;28;20039;-77
2023/05/17 00:18:53;;;;;;;10.10;4.30;;;3.80;74.30;;;;;;5111225;28;20032;-76
2023/05/17 00:21:21;;;;;;;9.68;4.30;;;3.80;74.20;;;;;;5110640;28;20051;-77
2023/05/17 00:23:47;;;;;;;11.02;3.70;;;3.70;74.80;;;;;;5108966;28;20110;-76
2023/05/17 00:26:12;;;;;;;8.93;3.88;;;3.80;73.40;;;;;;5111433;28;20094;-76
2023/05/17 00:28:38;;;;;;;14.07;4.18;;;3.70;74.40;;;;;;5110791;28;20102;-77
2023/05/17 00:31:03;;;;;;;10.35;4.00;;;3.80;74.30;;;;;;5111490;28;20417;-76
2023/05/17 00:33:29;;;;;;;7.80;4.07;;;3.80;73.70;;;;;;5106982;28;20015;-77
2023/05/17 00:35:55;;;;;;;9.57;3.45;;;3.80;75.20;;;;;;5110918;28;20031;-76
2023/05/17 00:38:20;;;;;;;10.25;3.60;;;3.90;75.30;;;;;;5110464;28;20027;-77
2023/05/17 00:40:46;;;;;;;13.68;5.70;;;3.90;76.10;;;;;;5111464;28;20068;-76
2023/05/17 00:43:11;;;;;;;7.95;4.25;;;3.90;76.60;;;;;;5110555;28;20032;-77
2023/05/17 00:45:37;;;;;;;10.45;4.40;;;3.80;76.70;;;;;;5112166;28;20102;-76
2023/05/17 00:48:03;;;;;;;8.93;3.63;;;3.80;76.50;;;;;;5108487;28;20412;-76
2023/05/17 00:50:28;;;;;;;8.68;3.40;;;3.80;77.60;;;;;;5110785;28;20023;-76
2023/05/17 00:52:55;;;;;;;10.88;3.95;;;3.80;76.80;;;;;;5108187;28;20106;-76
2023/05/17 00:55:20;;;;;;;14.00;3.78;;;3.80;76.60;;;;;;5091542;28;20471;-75
2023/05/17 00:57:46;;;;;;;11.88;3.67;;;3.80;75.50;;;;;;5111687;28;20059;-76
2023/05/17 01:00:13;;;;;;;9.50;3.63;;;3.90;75.80;;;;;;5109401;28;20051;-75
2023/05/17 01:02:38;;;;;;;11.45;4.05;;;3.90;76.50;;;;;;5091906;28;20134;-78
2023/05/17 01:05:04;;;;;;;9.85;3.50;;;3.90;77.10;;;;;;5113056;28;20111;-78
2023/05/17 01:07:30;;;;;;;9.40;3.65;;;3.90;76.40;;;;;;5094540;28;20416;-77
2023/05/17 01:09:56;;;;;;;6.82;3.80;;;3.90;77.20;;;;;;5109834;28;20042;-77
2023/05/17 01:12:48;;;;;;;8.15;3.50;;;3.90;76.40;;;;;;5109522;28;20016;-77
2023/05/17 01:15:30;;;;;;;12.48;3.80;;;3.90;77.20;;;;;;5110213;28;20032;-76
2023/05/17 01:18:17;;;;;;;11.35;3.75;;;3.80;77.20;;;;;;5092310;28;20081;-77
2023/05/17 01:20:45;;;;;;;13.13;4.20;;;3.80;77.00;;;;;;5109662;28;20387;-76
2023/05/17 01:24:02;;;;;;;9.63;3.97;;;3.80;76.10;;;;;;5109956;28;20028;-76
2023/05/17 01:26:38;;;;;;;8.93;3.30;;;3.80;75.70;;;;;;5060492;28;20039;-76
2023/05/17 01:29:08;;;;;;;9.57;4.03;;;3.80;76.60;;;;;;5110533;28;20051;-77
2023/05/17 01:31:35;;;;;;;7.10;3.22;;;3.80;76.10;;;;;;5102616;28;20035;-76
2023/05/17 01:34:05;;;;;;;11.40;4.68;;;3.70;75.20;;;;;;5109739;28;20098;-77
2023/05/17 01:36:30;;;;;;;9.02;4.22;;;3.80;75.20;;;;;;5111660;28;20456;-77
2023/05/17 01:38:56;;;;;;;11.27;4.22;;;3.70;75.40;;;;;;5091183;28;20036;-77
2023/05/17 01:41:39;;;;;;;7.18;3.67;;;3.70;74.40;;;;;;5110429;28;20328;-76
2023/05/17 01:44:42;;;;;;;9.85;4.07;;;3.70;75.20;;;;;;5111295;28;20031;-76
2023/05/17 01:47:35;;;;;;;12.13;4.18;;;3.70;75.80;;;;;;5092261;28;20028;-77
2023/05/17 01:50:02;;;;;;;9.27;3.60;;;3.60;75.40;;;;;;5107715;28;20328;-77
2023/05/17 01:52:58;;;;;;;10.68;3.85;;;3.60;74.90;;;;;;5109520;28;20054;-76
2023/05/17 01:55:32;;;;;;;9.93;3.58;;;3.50;75.60;;;;;;5113285;28;20028;-77
2023/05/17 01:58:02;;;;;;;11.10;3.67;;;3.40;75.60;;;;;;5108954;28;20036;-76
2023/05/17 02:00:29;;;;;;;12.40;4.38;;;3.40;75.10;;;;;;5108876;28;20320;-76
2023/05/17 02:02:54;;;;;;;11.27;3.90;;;3.40;75.00;;;;;;5092741;28;20114;-76
2023/05/17 02:05:20;;;;;;;8.20;4.07;;;3.30;74.70;;;;;;5110640;28;20364;-76
2023/05/17 02:07:45;;;;;;;9.95;4.18;;;3.30;73.60;;;;;;5110782;28;20317;-77
2023/05/17 02:10:11;;;;;;;14.05;4.00;;;3.30;74.40;;;;;;5109611;28;20030;-77
2023/05/17 02:12:37;;;;;;;8.88;3.50;;;3.30;74.90;;;;;;5111055;28;20416;-77
2023/05/17 02:15:03;;;;;;;9.02;3.80;;;3.20;74.60;;;;;;5109604;28;20435;-76
2023/05/17 02:17:28;;;;;;;13.18;4.03;;;3.10;74.90;;;;;;5109134;28;20023;-76
2023/05/17 02:19:54;;;;;;;9.43;4.03;;;3.10;73.70;;;;;;5108483;28;20053;-77
2023/05/17 02:22:19;;;;;;;10.27;4.30;;;3.10;74.90;;;;;;5091337;28;20060;-76
2023/05/17 02:24:46;;;;;;;8.63;4.43;;;3.10;75.20;;;;;;5108375;28;20111;-77
2023/05/17 02:27:11;;;;;;;16.50;4.32;;;3.00;74.80;;;;;;5109717;28;20020;-77
2023/05/17 02:29:37;;;;;;;13.85;4.50;;;3.00;74.00;;;;;;5109608;28;20020;-77
2023/05/17 02:32:05;;;;;;;8.70;4.03;;;3.00;75.20;;;;;;5113609;28;20047;-77
2023/05/17 02:34:31;;;;;;;15.25;4.70;;;3.00;74.40;;;;;;5113391;28;20032;-77
2023/05/17 02:36:57;;;;;;;12.35;4.03;;;2.90;75.20;;;;;;5113761;28;20324;-77
2023/05/17 02:39:22;;;;;;;6.97;4.25;;;2.90;75.60;;;;;;5113258;27;20035;-77
2023/05/17 02:41:48;;;;;;;13.80;4.47;;;2.80;74.70;;;;;;5116545;28;20442;-77
2023/05/17 02:44:13;;;;;;;7.03;3.75;;;2.80;73.70;;;;;;5114505;28;20024;-77
2023/05/17 02:46:39;;;;;;;9.10;4.85;;;2.80;72.80;;;;;;5112508;28;20027;-77
2023/05/17 02:49:05;;;;;;;12.30;4.60;;;2.80;73.40;;;;;;5095038;28;20023;-76
2023/05/17 02:51:30;;;;;;;11.32;4.78;;;2.80;75.50;;;;;;5115000;28;20028;-77
2023/05/17 02:53:56;;;;;;;8.40;4.22;;;2.80;73.90;;;;;;5095694;27;20032;-76
2023/05/17 02:56:24;;;;;;;9.27;4.28;;;2.80;74.90;;;;;;5115251;28;20420;-76
2023/05/17 02:58:50;;;;;;;10.18;4.70;;;2.70;76.30;;;;;;5110906;28;20045;-76
2023/05/17 03:01:16;;;;;;;11.30;4.35;;;2.50;76.40;;;;;;5098692;28;20421;-76
2023/05/17 03:03:41;;;;;;;10.32;4.07;;;2.40;75.90;;;;;;5114826;28;20293;-76
2023/05/17 03:06:07;;;;;;;8.68;4.18;;;2.40;73.60;;;;;;5095746;28;20051;-76
2023/05/17 03:08:32;;;;;;;8.75;4.15;;;2.40;74.10;;;;;;5113512;28;20031;-76
2023/05/17 03:10:58;;;;;;;7.72;3.80;;;2.40;73.10;;;;;;5113642;28;20463;-76
2023/05/17 03:13:23;;;;;;;14.43;4.68;;;2.40;72.40;;;;;;5094469;28;20646;-76
2023/05/17 03:15:49;;;;;;;8.27;3.97;;;2.40;71.60;;;;;;5112842;28;20110;-76
2023/05/17 03:18:15;;;;;;;15.35;5.07;;;2.40;72.50;;;;;;5109385;28;20458;-76
2023/05/17 03:20:40;;;;;;;10.88;4.38;;;2.40;71.70;;;;;;5114152;28;20323;-76
2023/05/17 03:23:06;;;;;;;13.50;5.47;;;2.30;72.30;;;;;;5116908;28;20045;-77
2023/05/17 03:25:31;;;;;;;11.68;5.05;;;2.30;71.00;;;;;;5115603;28;20039;-76
2023/05/17 03:27:57;;;;;;;7.72;3.83;;;2.30;70.70;;;;;;5115823;28;20098;-76
2023/05/17 03:30:22;;;;;;;15.27;5.35;;;2.30;70.20;;;;;;5117020;28;20028;-77
2023/05/17 03:32:48;;;;;;;13.65;4.38;;;2.30;71.00;;;;;;5098791;28;20083;-76
2023/05/17 03:35:13;;;;;;;11.38;4.50;;;2.20;71.10;;;;;;5113617;28;20024;-76
2023/05/17 03:37:39;;;;;;;12.23;4.88;;;2.10;71.70;;;;;;5114716;28;20031;-77
2023/05/17 03:40:05;;;;;;;10.13;4.75;;;2.10;70.30;;;;;;5110038;28;20080;-76
2023/05/17 03:42:31;;;;;;;10.15;4.60;;;2.10;69.40;;;;;;5112590;28;20028;-76
2023/05/17 03:44:57;;;;;;;9.55;5.00;;;2.10;69.50;;;;;;5091497;28;20072;-76
2023/05/17 03:47:22;;;;;;;13.65;4.43;;;2.10;69.80;;;;;;5107059;28;20023;-76
2023/05/17 03:49:49;;;;;;;10.02;4.93;;;2.10;68.90;;;;;;5089672;28;20423;-76
2023/05/17 03:52:14;;;;;;;9.55;4.53;;;2.10;69.50;;;;;;5112851;28;20055;-76
2023/05/17 03:54:40;;;;;;;11.93;4.95;;;2.00;69.70;;;;;;5110053;28;20375;-76
2023/05/17 03:57:06;;;;;;;11.65;4.93;;;2.00;69.00;;;;;;5111535;28;20451;-76
2023/05/17 03:59:31;;;;;;;10.55;4.65;;;2.00;68.80;;;;;;5107697;28;20027;-76
2023/05/17 04:01:57;;;;;;;10.57;4.95;;;2.00;67.90;;;;;;5105856;28;20042;-76
2023/05/17 04:04:22;;;;;;;11.52;4.32;;;2.00;69.00;;;;;;5113636;27;20069;-77
2023/05/17 04:06:48;;;;;;;12.45;5.05;;;2.00;68.10;;;;;;5113519;28;20129;-77
2023/05/17 04:09:14;;;;;;;12.20;4.95;;;2.00;68.10;;;;;;5110225;28;20940;-76
2023/05/17 04:11:40;;;;;;;12.68;5.15;;;2.00;67.60;;;;;;5104752;28;20028;-76
2023/05/17 04:14:06;;;;;;;13.88;5.38;;;2.10;67.20;;;;;;5090728;28;21336;-75
2023/05/17 04:16:32;;;;;;;16.58;7.25;;;2.10;67.40;;;;;;5111971;28;20027;-77
2023/05/17 04:18:59;;;;;;;11.82;4.88;;;2.10;67.30;;;;;;5109517;28;20073;-76
2023/05/17 04:21:25;;;;;;;10.73;4.55;;;2.20;67.50;;;;;;5109744;28;20031;-76
2023/05/17 04:23:51;;;;;;;12.02;4.88;;;2.20;67.00;;;;;;5111879;28;20042;-76
2023/05/17 04:26:17;;;;;;;11.48;4.22;;;2.30;67.10;;;;;;5111406;28;20050;-77
2023/05/17 04:28:42;;;;;;;10.60;4.55;;;2.30;66.60;;;;;;5111196;28;20019;-76
2023/05/17 04:31:08;;;;;;;8.18;4.53;;;2.30;67.00;;;;;;5110845;28;20349;-76
2023/05/17 04:33:34;;;;;;;14.60;5.38;;;2.30;67.30;;;;;;5111472;28;20023;-76
2023/05/17 04:35:59;;;;;;;12.73;4.97;;;2.30;67.80;;;;;;5112900;28;20047;-77
2023/05/17 04:38:25;;;;;;;11.90;4.47;;;2.30;67.80;;;;;;5109180;27;20172;-77
2023/05/17 04:40:51;;;;;;;17.65;5.10;;;2.40;67.80;;;;;;5110553;28;20026;-77
2023/05/17 04:43:16;;;;;;;9.45;4.32;;;2.40;67.30;;;;;;5112575;27;20023;-76
2023/05/17 04:45:42;;;;;;;10.35;5.43;;;2.50;67.40;;;;;;5110795;28;20057;-76
2023/05/17 04:48:08;;;;;;;9.93;4.55;;;2.50;67.50;;;;;;5107313;28;20020;-76
2023/05/17 04:50:34;;;;;;;10.23;4.57;;;2.50;67.50;;;;;;5110766;28;20319;-77
2023/05/17 04:53:00;;;;;;;12.02;5.15;;;2.60;68.00;;;;;;5108257;28;20020;-76
2023/05/17 04:55:25;;;;;;;10.48;5.32;;;2.60;67.70;;;;;;5093365;28;20084;-77
2023/05/17 04:57:51;;;;;;;10.63;5.57;;;2.60;67.90;;;;;;5112619;28;20027;-76
2023/05/17 05:00:17;;;;;;;12.73;4.75;;;2.70;67.70;;;;;;5109352;28;20094;-77
2023/05/17 05:02:43;;;;;;;9.25;5.60;;;2.70;67.60;;;;;;5112464;28;20027;-77
2023/05/17 05:05:13;;;;;;;9.73;4.63;;;2.80;67.80;;;;;;5108932;28;20034;-77
2023/05/17 05:07:39;;;;;;;10.13;5.20;;;2.90;67.10;;;;;;5110459;28;20082;-76
2023/05/17 05:10:05;;;;;;;12.88;5.18;;;3.00;66.50;;;;;;5108156;28;20027;-77
2023/05/17 05:12:31;;;;;;;9.93;5.18;;;3.10;67.20;;;;;;5112585;28;20023;-76
2023/05/17 05:14:56;;;;;;;11.00;5.65;;;3.20;67.20;;;;;;5111153;28;20020;-76
2023/05/17 05:17:25;;;;;;;11.00;4.35;;;3.30;67.10;;;;;;5110054;28;20081;-76
2023/05/17 05:19:50;;;;;;;7.30;4.15;;;3.40;66.90;;;;;;5107230;28;20098;-76
2023/05/17 05:22:16;;;;;;;10.70;4.15;;;3.50;67.00;;;;;;5110446;28;20107;-76
2023/05/17 05:24:42;;;;;;;11.60;4.50;;;3.60;67.40;;;;;;5111264;28;20102;-77
2023/05/17 05:27:08;;;;;;;13.27;4.70;;;3.70;67.80;;;;;;5111723;28;20047;-77
2023/05/17 05:29:33;;;;;;;12.82;5.20;;;3.80;68.20;;;;;;5111444;28;20027;-78
2023/05/17 05:31:59;;;;;;;9.05;4.72;;;3.90;68.70;;;;;;5112498;28;20020;-77
2023/05/17 05:34:27;;;;;;;10.60;5.07;;;4.10;67.40;;;;;;5115975;28;20024;-77
2023/05/17 05:36:52;;;;;;;11.75;6.57;;;4.20;68.00;;;;;;5116012;28;20108;-77
2023/05/17 05:39:18;;;;;;;12.93;6.32;;;4.30;69.20;;;;;;5110151;28;20027;-78
2023/05/17 05:41:44;;;;;;;9.73;4.60;;;4.50;69.20;;;;;;5110049;28;20107;-76
2023/05/17 05:44:10;;;;;;;12.73;5.30;;;4.60;69.10;;;;;;5113233;28;20067;-76
2023/05/17 05:46:35;;;;;;;7.75;4.18;;;4.80;70.20;;;;;;5112218;28;20055;-77
2023/05/17 05:49:01;;;;;;;10.60;4.90;;;5.00;72.30;;;;;;5112482;28;20058;-76
2023/05/17 05:51:26;;;;;;;10.63;4.57;;;5.00;75.50;;;;;;5109200;28;20030;-77
2023/05/17 05:53:52;;;;;;;10.18;3.80;;;5.10;78.50;;;;;;5108660;28;20031;-77
2023/05/17 05:56:18;;;;;;;9.88;3.65;;;5.20;82.20;;;;;;5111239;28;20077;-77
2023/05/17 05:58:43;;;;;;;10.57;3.60;;;5.30;86.30;;;;;;5110396;28;20043;-76
2023/05/17 06:01:09;;;;;;;8.02;4.13;;;5.50;88.80;;;;;;5095466;28;20016;-76
2023/05/17 06:03:35;;;;;;;11.48;4.60;;;5.40;92.00;;;;;;5114249;28;20027;-76
2023/05/17 06:06:00;;;;;;;9.40;3.67;;;5.40;93.10;;;;;;5112779;28;20038;-76
2023/05/17 06:08:26;;;;;;;9.63;3.97;;;5.50;94.20;;;;;;5120014;28;20019;-77
2023/05/17 06:10:52;;;;;;;8.85;3.75;;;5.60;95.60;;;;;;5115919;28;20342;-77
2023/05/17 06:13:17;;;;;;;8.70;3.70;;;5.70;96.10;;;;;;5119754;28;20019;-76
2023/05/17 06:15:43;;;;;;;8.93;3.78;;;5.90;98.00;;;;;;5119856;28;20020;-76
2023/05/17 06:18:08;;;;;;;9.73;3.15;;;5.90;98.00;;;;;;5119691;28;20447;-77
2023/05/17 06:20:34;;;;;;;8.98;3.25;;;6.10;98.00;;;;;;5117654;28;20327;-77
2023/05/17 06:23:00;;;;;;;12.18;3.85;;;6.40;97.70;;;;;;5100404;28;20132;-77
2023/05/17 06:25:26;;;;;;;8.57;2.95;;;6.60;98.00;;;;;;5118325;28;20106;-77
2023/05/17 06:27:51;;;;;;;35.67;25.10;;;6.80;98.00;;;;;;5118012;28;20099;-77
2023/05/17 06:30:17;;;;;;;14.25;6.13;;;6.80;98.00;;;;;;5116350;28;20049;-77
2023/05/17 06:32:42;;;;;;;8.90;3.30;;;6.80;98.00;;;;;;5101246;28;20024;-77
2023/05/17 06:35:09;;;;;;;10.25;3.03;;;6.90;98.00;;;;;;5119091;28;20038;-77
2023/05/17 06:37:34;;;;;;;11.07;3.25;;;7.00;98.00;;;;;;5118191;28;20049;-77
2023/05/17 06:40:05;;;;;;;9.02;3.33;;;7.10;98.00;;;;;;5115993;28;20027;-77
2023/05/17 06:42:31;;;;;;;7.10;3.35;;;7.10;98.00;;;;;;5109585;28;20600;-77
2023/05/17 06:44:57;;;;;;;9.50;2.88;;;7.30;98.00;;;;;;5101351;28;20031;-78
2023/05/17 06:47:23;;;;;;;13.45;3.88;;;7.50;98.00;;;;;;5119457;28;20020;-77
2023/05/17 06:49:48;;;;;;;11.02;3.53;;;7.60;98.00;;;;;;5100437;28;20434;-77
2023/05/17 06:52:14;;;;;;;12.40;3.42;;;7.70;98.00;;;;;;5118638;28;20024;-77
2023/05/17 06:54:40;;;;;;;9.82;3.30;;;7.80;98.00;;;;;;5099902;28;20035;-77
2023/05/17 06:57:05;;;;;;;6.25;2.92;;;7.90;98.00;;;;;;5119090;28;20032;-77
2023/05/17 06:59:31;;;;;;;12.25;3.10;;;8.00;97.90;;;;;;5117835;28;20472;-77
2023/05/17 07:01:58;;;;;;;10.35;2.75;;;8.10;98.00;;;;;;5099361;28;20055;-77
2023/05/17 07:04:25;;;;;;;11.98;3.05;;;8.20;98.00;;;;;;5117312;28;20016;-77
2023/05/17 07:06:50;;;;;;;12.93;3.20;;;8.30;97.40;;;;;;5115947;28;20451;-77
2023/05/17 07:09:16;;;;;;;9.43;3.40;;;8.70;96.60;;;;;;5098330;28;20053;-77
2023/05/17 07:11:42;;;;;;;9.63;3.55;;;8.90;96.70;;;;;;5118812;28;20027;-77
2023/05/17 07:14:07;;;;;;;9.38;2.72;;;9.00;96.00;;;;;;5117890;28;20028;-77
2023/05/17 07:16:33;;;;;;;8.75;3.38;;;9.20;97.10;;;;;;5118830;28;20065;-77
2023/05/17 07:18:59;;;;;;;13.70;3.88;;;9.20;94.90;;;;;;5116881;28;20089;-77
2023/05/17 07:21:24;;;;;;;7.03;3.00;;;9.20;94.70;;;;;;5115731;28;20027;-77
2023/05/17 07:23:50;;;;;;;8.10;3.20;;;9.20;95.20;;;;;;5117366;28;20052;-77
2023/05/17 07:26:19;;;;;;;12.43;3.63;;;9.20;95.40;;;;;;5118684;28;20350;-77
2023/05/17 07:28:45;;;;;;;10.32;3.95;;;9.10;94.90;;;;;;5117361;28;20016;-77
2023/05/17 07:31:10;;;;;;;8.95;3.40;;;9.00;95.20;;;;;;5118358;28;20030;-78
2023/05/17 07:33:37;;;;;;;11.20;3.30;;;9.30;94.70;;;;;;5118540;28;20023;-77
2023/05/17 07:36:03;;;;;;;7.60;2.97;;;9.60;94.00;;;;;;5099430;28;20126;-77
2023/05/17 07:38:29;;;;;;;7.10;3.38;;;10.10;92.60;;;;;;5117740;28;20035;-77
2023/05/17 07:40:54;;;;;;;10.75;3.53;;;10.40;92.00;;;;;;5117216;28;20457;-77
2023/05/17 07:43:23;;;;;;;9.02;2.75;;;10.20;91.30;;;;;;5118225;28;20058;-77
2023/05/17 07:45:48;;;;;;;10.15;3.28;;;10.00;91.50;;;;;;5118224;28;20028;-77
2023/05/17 07:48:14;;;;;;;13.65;3.70;;;10.00;92.00;;;;;;5117424;28;20035;-77
2023/05/17 07:50:40;;;;;;;8.05;3.10;;;10.10;91.80;;;;;;5116552;28;20103;-77
2023/05/17 07:53:05;;;;;;;8.70;3.28;;;10.10;91.50;;;;;;5116703;28;20058;-77
2023/05/17 07:55:31;;;;;;;9.85;3.28;;;10.00;90.40;;;;;;5116779;28;20024;-77
2023/05/17 07:57:57;;;;;;;8.77;3.30;;;10.10;91.60;;;;;;5117259;28;20027;-77
2023/05/17 08:00:23;;;;;;;15.45;5.05;;;10.60;91.50;;;;;;5117929;28;20438;-77
2023/05/17 08:02:49;;;;;;;10.80;3.55;;;10.80;89.50;;;;;;5117866;28;20059;-77
2023/05/17 08:05:15;;;;;;;10.45;3.10;;;10.30;90.60;;;;;;5097469;28;20036;-77
2023/05/17 08:07:41;;;;;;;9.20;3.03;;;10.70;91.30;;;;;;5106840;28;20012;-76
2023/05/17 08:10:06;;;;;;;11.00;3.22;;;11.60;87.90;;;;;;5115852;28;20028;-76
2023/05/17 08:12:32;;;;;;;10.38;3.35;;;11.50;87.30;;;;;;5098437;28;20059;-75
2023/05/17 08:14:57;;;;;;;9.15;3.60;;;11.10;86.50;;;;;;5117578;28;20027;-76
2023/05/17 08:17:23;;;;;;;15.38;3.60;;;10.80;88.10;;;;;;5117447;28;20028;-76
2023/05/17 08:19:49;;;;;;;10.40;3.17;;;10.90;88.80;;;;;;5099364;28;20338;-77
2023/05/17 08:22:15;;;;;;;8.55;2.90;;;11.00;88.70;;;;;;5098347;28;20038;-78
2023/05/17 08:24:41;;;;;;;10.20;3.58;;;10.80;87.70;;;;;;5116002;28;20027;-78
2023/05/17 08:27:06;;;;;;;8.93;3.33;;;10.90;86.90;;;;;;5117407;28;20023;-77
2023/05/17 08:29:32;;;;;;;8.73;3.65;;;11.10;88.30;;;;;;5116618;28;20028;-77
2023/05/17 08:31:57;;;;;;;12.18;3.35;;;11.00;87.50;;;;;;5116242;28;20042;-77
2023/05/17 08:34:23;;;;;;;8.75;3.45;;;11.10;87.30;;;;;;5116890;28;20058;-77
2023/05/17 08:36:49;;;;;;;8.48;2.72;;;12.10;85.00;;;;;;5117074;28;20336;-77
2023/05/17 08:39:15;;;;;;;8.40;3.03;;;13.30;80.20;;;;;;5097238;28;20111;-77
2023/05/17 08:41:40;;;;;;;9.20;3.50;;;13.50;79.30;;;;;;5116470;28;20031;-77
2023/05/17 08:44:07;;;;;;;6.85;2.70;;;13.50;81.10;;;;;;5116913;28;20024;-77
2023/05/17 08:46:35;;;;;;;9.95;3.35;;;13.00;79.70;;;;;;5099110;28;20024;-77
2023/05/17 08:49:02;;;;;;;9.10;2.88;;;12.70;79.60;;;;;;5116816;28;20431;-77
2023/05/17 08:51:28;;;;;;;7.22;2.60;;;12.90;78.70;;;;;;5116161;28;20023;-76
2023/05/17 08:53:54;;;;;;;8.48;2.83;;;14.10;76.30;;;;;;5114871;28;20746;-77
2023/05/17 08:56:22;;;;;;;9.30;2.97;;;14.50;74.10;;;;;;5116829;28;20023;-76
2023/05/17 08:58:52;;;;;;;7.45;2.90;;;14.30;73.20;;;;;;5098819;28;20059;-77
2023/05/17 09:01:18;;;;;;;9.15;3.10;;;13.40;75.90;;;;;;5116005;28;20031;-77
2023/05/17 09:03:49;;;;;;;9.40;3.38;;;12.60;78.20;;;;;;5115824;28;20019;-77
2023/05/17 09:06:17;;;;;;;8.32;3.20;;;12.40;81.00;;;;;;5116790;28;20059;-76
2023/05/17 09:08:43;;;;;;;9.68;3.50;;;12.00;81.80;;;;;;5114846;28;20016;-76
2023/05/17 09:11:09;;;;;;;10.00;4.03;;;11.30;84.30;;;;;;5115090;28;20061;-77
2023/05/17 09:13:35;;;;;;;10.65;3.30;;;11.40;86.50;;;;;;5116636;28;20019;-76
2023/05/17 09:16:01;;;;;;;8.13;3.30;;;12.60;81.50;;;;;;5116490;28;20042;-77
2023/05/17 09:18:31;;;;;;;8.57;3.00;;;13.60;80.70;;;;;;5098713;28;20114;-76
2023/05/17 09:21:02;;;;;;;8.48;3.38;;;14.30;79.30;;;;;;5097847;28;20417;-76
2023/05/17 09:23:32;;;;;;;11.35;3.85;;;14.80;78.10;;;;;;5098539;28;20024;-76
2023/05/17 09:26:09;;;;;;;9.00;3.60;;;14.90;76.90;;;;;;5114526;28;20024;-76
2023/05/17 09:28:40;;;;;;;8.65;3.58;;;15.20;76.50;;;;;;5116372;28;20512;-76
2023/05/17 09:31:12;;;;;;;8.15;3.65;;;15.40;76.90;;;;;;5115608;28;20020;-76
2023/05/17 09:33:48;;;;;;;11.38;3.58;;;15.60;75.10;;;;;;5116432;28;20031;-77
2023/05/17 09:36:22;;;;;;;9.13;3.83;;;15.00;74.90;;;;;;5096559;28;20126;-76
2023/05/17 09:39:00;;;;;;;11.20;3.87;;;14.70;74.70;;;;;;5114391;28;20091;-77
2023/05/17 09:41:27;;;;;;;8.95;3.83;;;14.80;74.60;;;;;;5117626;28;20051;-76
2023/05/17 09:43:56;;;;;;;12.60;4.13;;;14.10;76.00;;;;;;5120551;28;20030;-76
2023/05/17 09:46:22;;;;;;;10.18;3.85;;;13.50;78.00;;;;;;5102273;28;20024;-77
2023/05/17 09:48:52;;;;;;;9.48;4.10;;;12.90;80.20;;;;;;5120520;28;20073;-76
2023/05/17 09:51:18;;;;;;;11.13;4.07;;;13.20;81.90;;;;;;5119568;28;20027;-76
2023/05/17 09:53:43;;;;;;;10.63;3.97;;;14.40;80.60;;;;;;5119175;28;20027;-76
2023/05/17 09:56:09;;;;;;;9.85;4.15;;;15.80;74.70;;;;;;5119620;28;20378;-76
2023/05/17 09:58:37;;;;;;;8.57;3.78;;;16.10;72.70;;;;;;5120310;28;20076;-76
2023/05/17 10:01:05;;;;;;;8.70;3.67;;;15.90;73.10;;;;;;5119457;28;20027;-76
2023/05/17 10:03:36;;;;;;;12.75;4.88;;;15.50;73.70;;;;;;5120231;28;20024;-76
2023/05/17 10:06:05;;;;;;;12.18;3.65;;;15.00;76.70;;;;;;5120031;28;20022;-75
2023/05/17 10:08:32;;;;;;;7.47;3.45;;;16.20;72.00;;;;;;5120100;28;20091;-76
2023/05/17 10:11:06;;;;;;;7.82;3.80;;;17.00;71.60;;;;;;5116581;28;20107;-75
2023/05/17 10:13:57;;;;;;;8.95;3.83;;;17.00;70.50;;;;;;5120135;28;20019;-75
2023/05/17 10:16:23;;;;;;;8.25;3.95;;;16.40;70.80;;;;;;5101336;28;20028;-75
2023/05/17 10:18:49;;;;;;;10.15;4.10;;;15.50;74.30;;;;;;5119785;28;20072;-75
2023/05/17 10:21:16;;;;;;;10.35;3.92;;;15.70;74.30;;;;;;5119322;28;20020;-75
2023/05/17 10:23:43;;;;;;;7.10;3.58;;;16.20;72.50;;;;;;5117799;28;20049;-74
2023/05/17 10:26:08;;;;;;;9.45;3.85;;;16.30;70.60;;;;;;5101046;28;20031;-74
2023/05/17 10:28:36;;;;;;;8.38;3.80;;;16.10;71.70;;;;;;5119961;28;20023;-75
2023/05/17 10:31:03;;;;;;;6.82;3.55;;;16.10;74.10;;;;;;5118825;28;20023;-75
2023/05/17 10:33:31;;;;;;;9.10;3.80;;;15.90;72.40;;;;;;5100614;28;20023;-75
2023/05/17 10:35:58;;;;;;;7.70;4.00;;;14.80;73.00;;;;;;5117143;28;20036;-75
2023/05/17 10:38:25;;;;;;;8.55;4.00;;;14.20;75.90;;;;;;5119449;28;20016;-74
2023/05/17 10:40:52;;;;;;;8.63;4.13;;;13.80;76.90;;;;;;5099370;28;20027;-74
2023/05/17 10:43:18;;;;;;;9.10;3.95;;;13.60;76.60;;;;;;5119472;28;20016;-74
2023/05/17 10:45:45;;;;;;;10.73;4.40;;;13.50;78.30;;;;;;5119176;28;20023;-74
2023/05/17 10:48:15;;;;;;;12.07;4.28;;;13.00;77.90;;;;;;5119421;28;20022;-74
2023/05/17 10:50:45;;;;;;;10.60;4.22;;;12.70;80.30;;;;;;5118514;28;20072;-74
2023/05/17 10:53:11;;;;;;;14.48;4.72;;;13.50;81.10;;;;;;5100430;28;20110;-74
2023/05/17 10:55:41;;;;;;;8.63;4.45;;;13.80;78.80;;;;;;5117644;28;20060;-75
2023/05/17 10:58:10;;;;;;;10.50;4.20;;;13.80;80.00;;;;;;5119035;28;20408;-74
2023/05/17 11:00:40;;;;;;;9.65;4.22;;;14.50;77.60;;;;;;5100585;28;20428;-75
2023/05/17 11:03:25;;;;;;;11.15;3.92;;;14.70;76.50;;;;;;5118941;28;20031;-74
2023/05/17 11:06:09;;;;;;;12.35;4.50;;;14.30;78.90;;;;;;5118773;28;20077;-73
2023/05/17 11:08:35;;;;;;;12.52;4.50;;;14.00;79.50;;;;;;5100534;28;20054;-74
2023/05/17 11:11:12;;;;;;;9.43;4.40;;;13.70;77.10;;;;;;5115661;28;20026;-73
2023/05/17 11:14:12;;;;;;;8.85;4.50;;;13.30;78.20;;;;;;5118301;28;20081;-73
2023/05/17 11:16:37;;;;;;;12.00;4.45;;;13.10;78.50;;;;;;5098745;28;20352;-75
2023/05/17 11:19:09;;;;;;;8.77;4.28;;;13.00;78.30;;;;;;5118225;28;20098;-75
2023/05/17 11:21:37;;;;;;;8.57;4.07;;;13.70;77.80;;;;;;5080382;28;20333;-74
2023/05/17 11:24:04;;;;;;;13.50;4.22;;;14.50;77.50;;;;;;5096862;28;20099;-74
2023/05/17 11:26:33;;;;;;;11.25;4.38;;;14.80;77.20;;;;;;5110529;28;20027;-76
2023/05/17 11:29:01;;;;;;;8.60;4.32;;;14.40;76.40;;;;;;5106839;28;20351;-75
2023/05/17 11:31:32;;;;;;;8.70;4.40;;;15.00;78.10;;;;;;5118301;28;20027;-74
2023/05/17 11:33:59;;;;;;;9.90;4.30;;;15.60;75.50;;;;;;5118539;28;20016;-75
2023/05/17 11:36:25;;;;;;;11.38;4.30;;;16.20;73.70;;;;;;5116975;28;20051;-74
2023/05/17 11:39:12;;;;;;;8.75;4.35;;;15.80;73.40;;;;;;5117153;28;20072;-74
2023/05/17 11:41:44;;;;;;;12.02;4.40;;;15.00;74.60;;;;;;5100268;28;20297;-74
2023/05/17 11:44:09;;;;;;;8.82;4.55;;;15.00;75.90;;;;;;5116779;28;20080;-74
2023/05/17 11:46:37;;;;;;;8.98;4.40;;;15.20;75.50;;;;;;5097763;28;20024;-74
2023/05/17 11:49:06;;;;;;;11.77;5.00;;;15.50;73.50;;;;;;5097672;28;20020;-74
2023/05/17 11:51:32;;;;;;;9.75;4.95;;;14.70;74.70;;;;;;5117668;28;20149;-74
2023/05/17 11:53:58;;;;;;;8.98;4.55;;;14.50;76.00;;;;;;5098971;28;20089;-74
2023/05/17 11:56:25;;;;;;;10.65;4.57;;;13.70;76.80;;;;;;5117466;28;20026;-74
2023/05/17 11:58:51;;;;;;;9.45;4.28;;;13.20;79.20;;;;;;5117888;28;20415;-74
2023/05/17 12:01:17;;;;;;;9.60;4.20;;;13.60;79.80;;;;;;5116502;28;20054;-74
2023/05/17 12:03:43;;;;;;;6.95;3.92;;;13.80;78.10;;;;;;5117100;28;20051;-75
2023/05/17 12:06:16;;;;;;;7.68;3.83;;;14.00;78.20;;;;;;5098965;28;20035;-74
2023/05/17 12:08:44;;;;;;;9.68;4.30;;;14.40;76.60;;;;;;5116642;28;20031;-74
2023/05/17 12:11:12;;;;;;;10.10;4.70;;;15.20;75.00;;;;;;5117576;28;20032;-73
2023/05/17 12:13:40;;;;;;;12.35;3.50;;;15.70;74.00;;;;;;5099678;28;20027;-75
2023/05/17 12:16:10;;;;;;;7.28;3.78;;;15.20;74.00;;;;;;5116923;28;20131;-74
2023/05/17 12:18:40;;;;;;;8.82;3.88;;;14.60;74.70;;;;;;5116541;28;20520;-74
2023/05/17 12:21:09;;;;;;;10.15;3.47;;;15.00;74.00;;;;;;5115907;28;20028;-74
2023/05/17 12:23:38;;;;;;;7.93;4.18;;;15.70;72.20;;;;;;5116226;28;20111;-74
2023/05/17 12:26:06;;;;;;;8.75;4.00;;;15.70;73.40;;;;;;5116676;28;20023;-74
2023/05/17 12:28:32;;;;;;;8.55;3.63;;;15.70;71.80;;;;;;5117407;28;20050;-74
2023/05/17 12:31:01;;;;;;;9.63;3.90;;;15.40;73.60;;;;;;5099271;28;20074;-74
2023/05/17 12:33:34;;;;;;;9.25;3.55;;;15.40;72.70;;;;;;5117351;28;20020;-74
2023/05/17 12:36:02;;;;;;;11.00;4.05;;;16.00;71.40;;;;;;5098624;28;20067;-74
2023/05/17 12:38:32;;;;;;;6.85;3.53;;;16.50;71.10;;;;;;5116051;28;20055;-74
2023/05/17 12:41:03;;;;;;;8.45;4.35;;;16.70;70.10;;;;;;5096841;28;20036;-74
2023/05/17 12:43:36;;;;;;;8.18;4.00;;;16.30;69.80;;;;;;5117065;28;20026;-74
2023/05/17 12:46:05;;;;;;;9.82;3.72;;;15.10;71.30;;;;;;5098502;28;20302;-74
2023/05/17 12:48:33;;;;;;;9.10;3.90;;;15.40;72.40;;;;;;5115455;28;20424;-74
2023/05/17 12:51:07;;;;;;;8.30;4.07;;;15.60;71.60;;;;;;5115332;28;20020;-74